To NAV CANADA Home Page Login to a new session Search on AWWS site Feedback and Comments Disclaimer Vers la page française équivalente Tips FAQ What's new on the site To the Forecasts and Observations / NOTAM section To "File a Flight Plan" website Publications and other links Update of the User's profile FIC Telephone Numbers My Weather Data Folder Route Weather Data Regional Weather Data Local Weather Data To the Forecasts and Observations / NOTAM section
Request Generated 10/18/2017 at 03:47:13 UTC . Weather information available at that time is displayed.

METAR/TAF

KELOWNA/BC    (show WxCam)

METAR CYLW 180300Z AUTO 35013KT 9SM FEW060 BKN240 05/03 A3002 RMK
SLP176=
SPECI CYLW 180238Z AUTO 33015KT 9SM CLR 04/03 A3001 RMK SLP173=
METAR CYLW 180200Z AUTO 13005KT 120V190 9SM FEW220 05/04 A2999 RMK
SLP164=
METAR CYLW 180100Z AUTO VRB04KT 9SM BKN070 OVC081 07/04 A2998 RMK
SLP161=

TAF CYLW 180040Z 1801/1813 VRB03KT P6SM BKN040 BKN080 TEMPO 1801/1804
25012G22KT SCT040 BKN080
FM180400 18006KT P6SM FEW100 SCT240
BECMG 1806/1808 VRB03KT
FM180900 VRB03KT P6SM SCT100 BKN120 OVC180
RMK FCST BASED ON AUTO OBS. NXT FCST BY 180700Z=
Your time UTC time
Weather data provided by Environment Canada and NAV CANADA